sensor_id;sensor_type;location;lat;lon;timestamp;temperature;humidity
57576;DHT22;43412;-33.800;150.804;2023-07-13T00:01:59;21.70;91.20
57576;DHT22;43412;-33.800;150.804;2023-07-13T00:04:26;21.90;90.60
57576;DHT22;43412;-33.800;150.804;2023-07-13T00:06:54;22.70;89.80
57576;DHT22;43412;-33.800;150.804;2023-07-13T00:09:22;22.90;89.50
57576;DHT22;43412;-33.800;150.804;2023-07-13T00:11:54;23.00;87.80
57576;DHT22;43412;-33.800;150.804;2023-07-13T00:14:23;23.10;88.00
57576;DHT22;43412;-33.800;150.804;2023-07-13T00:16:50;23.00;88.50
57576;DHT22;43412;-33.800;150.804;2023-07-13T00:19:18;22.80;89.50
57576;DHT22;43412;-33.800;150.804;2023-07-13T00:21:45;22.90;89.00
57576;DHT22;43412;-33.800;150.804;2023-07-13T00:24:15;23.10;88.20
57576;DHT22;43412;-33.800;150.804;2023-07-13T00:26:48;23.60;86.60
57576;DHT22;43412;-33.800;150.804;2023-07-13T00:29:16;23.80;87.50
57576;DHT22;43412;-33.800;150.804;2023-07-13T00:31:43;24.20;86.50
57576;DHT22;43412;-33.800;150.804;2023-07-13T00:34:11;24.60;84.70
57576;DHT22;43412;-33.800;150.804;2023-07-13T00:36:38;24.60;84.20
57576;DHT22;43412;-33.800;150.804;2023-07-13T00:39:06;24.40;84.10
57576;DHT22;43412;-33.800;150.804;2023-07-13T00:41:33;24.90;83.40
57576;DHT22;43412;-33.800;150.804;2023-07-13T00:44:00;24.70;84.30
57576;DHT22;43412;-33.800;150.804;2023-07-13T00:46:30;25.00;83.80
57576;DHT22;43412;-33.800;150.804;2023-07-13T00:49:04;25.00;83.60
57576;DHT22;43412;-33.800;150.804;2023-07-13T00:51:36;25.10;82.90
57576;DHT22;43412;-33.800;150.804;2023-07-13T00:54:11;25.30;82.80
57576;DHT22;43412;-33.800;150.804;2023-07-13T00:56:41;25.40;81.90
57576;DHT22;43412;-33.800;150.804;2023-07-13T00:59:10;25.40;82.00
57576;DHT22;43412;-33.800;150.804;2023-07-13T01:01:39;25.90;82.10
57576;DHT22;43412;-33.800;150.804;2023-07-13T01:04:06;26.00;81.20
57576;DHT22;43412;-33.800;150.804;2023-07-13T01:06:38;26.20;80.90
57576;DHT22;43412;-33.800;150.804;2023-07-13T01:09:08;26.10;80.70
57576;DHT22;43412;-33.800;150.804;2023-07-13T01:11:36;26.30;80.40
57576;DHT22;43412;-33.800;150.804;2023-07-13T01:14:04;26.40;80.10
57576;DHT22;43412;-33.800;150.804;2023-07-13T01:16:33;26.40;80.30
57576;DHT22;43412;-33.800;150.804;2023-07-13T01:19:01;26.40;79.70
57576;DHT22;43412;-33.800;150.804;2023-07-13T01:21:33;25.80;80.70
57576;DHT22;43412;-33.800;150.804;2023-07-13T01:24:01;26.10;80.70
57576;DHT22;43412;-33.800;150.804;2023-07-13T01:26:28;26.60;80.60
57576;DHT22;43412;-33.800;150.804;2023-07-13T01:28:56;26.60;80.60
57576;DHT22;43412;-33.800;150.804;2023-07-13T01:31:23;27.00;78.80
57576;DHT22;43412;-33.800;150.804;2023-07-13T01:33:50;27.20;78.40
57576;DHT22;43412;-33.800;150.804;2023-07-13T01:36:18;27.30;78.80
57576;DHT22;43412;-33.800;150.804;2023-07-13T01:38:47;27.90;77.20
57576;DHT22;43412;-33.800;150.804;2023-07-13T01:41:15;28.00;76.30
57576;DHT22;43412;-33.800;150.804;2023-07-13T01:43:42;27.90;76.40
57576;DHT22;43412;-33.800;150.804;2023-07-13T01:46:09;27.70;76.10
57576;DHT22;43412;-33.800;150.804;2023-07-13T01:48:37;27.50;77.00
57576;DHT22;43412;-33.800;150.804;2023-07-13T01:51:04;27.60;76.00
57576;DHT22;43412;-33.800;150.804;2023-07-13T01:53:31;27.60;76.30
57576;DHT22;43412;-33.800;150.804;2023-07-13T01:55:59;27.80;76.90
57576;DHT22;43412;-33.800;150.804;2023-07-13T01:58:26;27.90;76.20
57576;DHT22;43412;-33.800;150.804;2023-07-13T02:00:53;28.00;75.70
57576;DHT22;43412;-33.800;150.804;2023-07-13T02:03:21;28.20;75.80
57576;DHT22;43412;-33.800;150.804;2023-07-13T02:05:48;28.30;76.30
57576;DHT22;43412;-33.800;150.804;2023-07-13T02:08:15;28.50;75.40
57576;DHT22;43412;-33.800;150.804;2023-07-13T02:10:43;28.60;75.80
57576;DHT22;43412;-33.800;150.804;2023-07-13T02:13:10;28.50;75.10
57576;DHT22;43412;-33.800;150.804;2023-07-13T02:15:41;28.20;75.50
57576;DHT22;43412;-33.800;150.804;2023-07-13T02:18:09;28.20;75.20
57576;DHT22;43412;-33.800;150.804;2023-07-13T02:20:44;28.50;75.20
57576;DHT22;43412;-33.800;150.804;2023-07-13T02:23:11;28.60;75.40
57576;DHT22;43412;-33.800;150.804;2023-07-13T02:25:39;28.40;75.80
57576;DHT22;43412;-33.800;150.804;2023-07-13T02:28:06;28.30;76.10
57576;DHT22;43412;-33.800;150.804;2023-07-13T02:30:34;28.40;76.30
57576;DHT22;43412;-33.800;150.804;2023-07-13T02:33:02;28.30;74.80
57576;DHT22;43412;-33.800;150.804;2023-07-13T02:35:29;28.10;74.60
57576;DHT22;43412;-33.800;150.804;2023-07-13T02:37:57;27.80;75.10
57576;DHT22;43412;-33.800;150.804;2023-07-13T02:40:24;27.40;75.10
57576;DHT22;43412;-33.800;150.804;2023-07-13T02:42:52;27.10;76.00
57576;DHT22;43412;-33.800;150.804;2023-07-13T02:45:20;27.00;75.90
57576;DHT22;43412;-33.800;150.804;2023-07-13T02:47:47;26.80;75.90
57576;DHT22;43412;-33.800;150.804;2023-07-13T02:50:15;26.80;77.70
57576;DHT22;43412;-33.800;150.804;2023-07-13T02:52:42;26.60;77.10
57576;DHT22;43412;-33.800;150.804;2023-07-13T02:55:10;26.30;76.60
57576;DHT22;43412;-33.800;150.804;2023-07-13T02:57:37;26.20;76.80
57576;DHT22;43412;-33.800;150.804;2023-07-13T03:00:05;25.70;75.80
57576;DHT22;43412;-33.800;150.804;2023-07-13T03:02:34;25.50;75.30
57576;DHT22;43412;-33.800;150.804;2023-07-13T03:05:02;25.30;77.80
57576;DHT22;43412;-33.800;150.804;2023-07-13T03:07:30;24.40;78.00
